Time;durP1;ratioP1;P1;durP2;ratioP2;P2;SDS_P1;SDS_P2;PMS_P1;PMS_P2;Temp;Humidity;BMP_temperature;BMP_pressure;BME280_temperature;BME280_humidity;BME280_pressure;Samples;Min_cycle;Max_cycle;Signal;HPM_P1;HPM_P2
2021/08/18 00:02:09;;;;;;;;;4.00;4.00;;;;;29.72;57.56;98829.56;5053166;28;8928;-69
2021/08/18 00:04:38;;;;;;;;;6.75;6.75;;;;;29.76;57.56;98832.25;5052313;28;8850;-69
2021/08/18 00:07:07;;;;;;;;;4.00;4.00;;;;;29.80;57.75;98841.97;5053199;28;8914;-69
2021/08/18 00:09:35;;;;;;;;;4.75;4.75;;;;;29.89;57.53;98846.22;5052258;28;8839;-70
2021/08/18 00:12:06;;;;;;;;;4.60;4.60;;;;;29.89;57.70;98835.34;5053125;28;8924;-70
2021/08/18 00:14:34;;;;;;;;;6.00;6.00;;;;;29.85;57.75;98824.47;5052990;28;9628;-70
2021/08/18 00:17:03;;;;;;;;;4.40;4.40;;;;;30.03;57.21;98846.16;5052890;28;8920;-70
2021/08/18 00:19:32;;;;;;;;;6.00;6.00;;;;;29.93;57.05;98819.75;5052983;28;8931;-69
2021/08/18 00:22:00;;;;;;;;;5.25;5.25;;;;;30.06;56.90;98842.66;5052863;28;8826;-69
2021/08/18 00:24:29;;;;;;;;;6.60;6.60;;;;;30.07;57.48;98839.53;5052867;28;8842;-69
2021/08/18 00:26:58;;;;;;;;;7.00;7.00;;;;;30.15;57.27;98856.63;5052993;28;8920;-69
2021/08/18 00:29:40;;;;;;;;;6.50;6.50;;;;;30.16;57.01;98845.34;5037042;28;8850;-69
2021/08/18 00:32:09;;;;;;;;;5.00;5.00;;;;;29.96;57.16;98822.47;5052586;28;8928;-69
2021/08/18 00:34:37;;;;;;;;;7.25;6.25;;;;;30.18;57.43;98853.09;5052618;28;8854;-70
2021/08/18 00:37:06;;;;;;;;;5.40;5.40;;;;;30.14;57.23;98855.84;5051625;28;8839;-69
2021/08/18 00:39:34;;;;;;;;;6.50;6.50;;;;;30.19;57.60;98860.88;5052273;28;8952;-69
2021/08/18 00:42:03;;;;;;;;;6.00;6.00;;;;;30.19;57.17;98862.81;5052320;28;8966;-69
2021/08/18 00:44:34;;;;;;;;;6.25;6.25;;;;;30.21;57.49;98871.38;5052462;28;8858;-69
2021/08/18 00:47:06;;;;;;;;;4.75;4.75;;;;;30.24;57.34;98865.13;5052459;28;8855;-70
2021/08/18 00:49:34;;;;;;;;;5.25;5.25;;;;;30.19;56.82;98863.59;5052256;28;8923;-70
2021/08/18 00:52:04;;;;;;;;;5.00;5.00;;;;;30.31;57.26;98872.50;5051166;28;8961;-70
2021/08/18 00:54:49;;;;;;;;;7.00;7.00;;;;;30.27;57.12;98872.50;5051343;28;8834;-70
2021/08/18 00:57:18;;;;;;;;;4.40;4.40;;;;;30.39;57.27;98887.63;5052275;28;8834;-69
2021/08/18 00:59:47;;;;;;;;;5.00;5.00;;;;;30.41;57.16;98894.22;5052277;28;8854;-72
2021/08/18 01:02:17;;;;;;;;;5.00;5.00;;;;;30.46;56.59;98893.81;5051573;28;8850;-72
2021/08/18 01:04:48;;;;;;;;;4.80;4.80;;;;;30.50;56.37;98897.28;5051845;28;8909;-72
2021/08/18 01:07:16;;;;;;;;;5.00;5.00;;;;;30.52;56.29;98899.63;5051349;28;8881;-73
2021/08/18 01:09:45;;;;;;;;;5.20;5.20;;;;;30.60;56.30;98908.56;5051117;28;9677;-72
2021/08/18 01:12:14;;;;;;;;;3.00;3.00;;;;;30.64;55.74;98914.75;5050658;28;8830;-71
2021/08/18 01:14:43;;;;;;;;;5.20;5.20;;;;;30.69;55.65;98919.78;5051300;28;8850;-73
2021/08/18 01:17:12;;;;;;;;;4.00;4.00;;;;;30.69;55.56;98912.41;5051581;28;8874;-72
2021/08/18 01:19:41;;;;;;;;;4.00;4.00;;;;;30.70;55.29;98915.91;5050934;28;8858;-73
2021/08/18 01:22:09;;;;;;;;;3.60;3.60;;;;;30.73;55.34;98912.38;5049911;28;8951;-72
2021/08/18 01:24:38;;;;;;;;;4.60;4.60;;;;;30.85;55.06;98924.78;5049485;28;8858;-72
2021/08/18 01:27:07;;;;;;;;;5.80;5.80;;;;;30.86;55.51;98924.38;5051044;28;8839;-72
2021/08/18 01:29:35;;;;;;;;;4.80;4.80;;;;;30.88;55.90;98921.25;5050719;28;8859;-71
2021/08/18 01:32:04;;;;;;;;;5.40;5.40;;;;;30.76;55.83;98906.13;5050572;28;8951;-72
2021/08/18 01:34:35;;;;;;;;;6.00;6.00;;;;;30.85;55.91;98917.38;5050826;28;8847;-73
2021/08/18 01:37:04;;;;;;;;;3.60;3.60;;;;;30.82;55.50;98920.88;5048248;28;8839;-73
2021/08/18 01:39:33;;;;;;;;;2.00;2.00;;;;;30.74;55.08;98913.94;5050223;28;8920;-71
2021/08/18 01:42:02;;;;;;;;;7.00;7.00;;;;;30.70;56.40;98913.16;5049415;28;8862;-72
2021/08/18 01:44:32;;;;;;;;;6.00;6.00;;;;;30.69;56.41;98911.63;5047822;28;8877;-71
2021/08/18 01:47:00;;;;;;;;;7.20;7.20;;;;;30.65;55.85;98902.69;5050800;28;8834;-70
2021/08/18 01:49:29;;;;;;;;;6.50;6.50;;;;;30.67;55.69;98913.97;5048500;28;8924;-71
2021/08/18 01:51:58;;;;;;;;;5.00;5.00;;;;;30.68;55.29;98915.53;5049163;28;8912;-71
2021/08/18 01:54:26;;;;;;;;;5.40;5.40;;;;;30.60;55.49;98909.34;5052339;28;8839;-72
2021/08/18 01:56:55;;;;;;;;;8.25;8.25;;;;;30.54;56.06;98896.50;5045806;28;8863;-70
2021/08/18 01:59:26;;;;;;;;;4.20;4.20;;;;;30.65;55.61;98914.38;5068801;28;8832;-72
2021/08/18 02:01:55;;;;;;;;;6.20;6.20;;;;;30.59;55.08;98898.84;5052979;28;8916;-75
2021/08/18 02:04:24;;;;;;;;;5.00;5.00;;;;;30.64;55.85;98904.66;5052323;28;8834;-74
2021/08/18 02:06:52;;;;;;;;;4.40;4.40;;;;;30.70;56.27;98918.63;5054622;28;8830;-73
2021/08/18 02:09:21;;;;;;;;;5.00;5.00;;;;;30.63;55.52;98894.94;5049396;28;8859;-72
2021/08/18 02:11:49;;;;;;;;;3.60;3.60;;;;;30.76;55.77;98912.38;5048575;28;8839;-73
2021/08/18 02:14:18;;;;;;;;;3.00;3.00;;;;;30.80;55.38;98912.34;5050989;28;8922;-72
2021/08/18 02:16:47;;;;;;;;;4.00;4.00;;;;;30.83;55.25;98909.59;5051432;28;9595;-72
2021/08/18 02:19:15;;;;;;;;;3.40;3.40;;;;;30.77;55.46;98897.56;5050749;28;8886;-72
2021/08/18 02:21:44;;;;;;;;;4.20;4.20;;;;;30.86;55.93;98901.81;5080297;28;8925;-72
2021/08/18 02:24:12;;;;;;;;;3.00;3.00;;;;;30.89;55.21;98899.06;5069209;28;8836;-72
2021/08/18 02:26:41;;;;;;;;;5.00;5.00;;;;;30.90;54.88;98883.50;5049639;28;8858;-71
2021/08/18 02:29:10;;;;;;;;;4.60;4.60;;;;;30.98;54.59;98890.44;5051239;28;8844;-72
2021/08/18 02:31:38;;;;;;;;;3.00;3.00;;;;;31.04;54.97;98900.53;5050708;28;8860;-70
2021/08/18 02:34:09;;;;;;;;;4.20;4.20;;;;;31.09;54.85;98893.88;5053575;28;8840;-69
2021/08/18 02:36:38;;;;;;;;;3.60;3.60;;;;;31.13;54.21;98900.88;5053700;28;8877;-74
2021/08/18 02:39:08;;;;;;;;;3.00;3.00;;;;;31.17;53.89;98898.13;5053934;28;8851;-72
2021/08/18 02:41:37;;;;;;;;;3.80;3.80;;;;;31.22;54.04;98897.66;5054365;28;9680;-72
2021/08/18 02:44:05;;;;;;;;;3.00;3.00;;;;;31.24;53.99;98891.81;5053399;28;8922;-74
2021/08/18 02:46:34;;;;;;;;;3.00;3.00;;;;;31.36;54.50;98889.38;5054426;28;8931;-73
2021/08/18 02:49:02;;;;;;;;;2.40;2.40;;;;;31.44;52.96;98898.28;5054388;28;8850;-73
2021/08/18 02:51:31;;;;;;;;;3.00;3.00;;;;;31.49;52.59;98892.38;5053107;28;8843;-72
2021/08/18 02:54:00;;;;;;;;;3.00;3.00;;;;;31.56;52.08;98895.03;5053817;28;8827;-73
2021/08/18 02:56:28;;;;;;;;;3.60;3.60;;;;;31.63;52.47;98897.72;5052927;28;9693;-72
2021/08/18 02:58:57;;;;;;;;;3.00;3.00;;;;;31.68;51.92;98891.84;5053683;28;8839;-73
2021/08/18 03:01:25;;;;;;;;;2.20;2.20;;;;;31.76;51.78;98890.59;5053947;28;8858;-72
2021/08/18 03:03:54;;;;;;;;;2.00;2.00;;;;;31.82;50.97;98898.34;5054256;28;8888;-71
2021/08/18 03:06:22;;;;;;;;;2.00;2.00;;;;;31.86;52.00;98893.63;5054884;28;8842;-71
2021/08/18 03:08:51;;;;;;;;;2.00;2.00;;;;;31.87;50.65;98890.50;5054325;28;8842;-71
2021/08/18 03:11:19;;;;;;;;;0.00;0.00;;;;;31.90;50.36;98899.81;5054194;28;8866;-72
2021/08/18 03:13:48;;;;;;;;;2.00;2.00;;;;;31.92;51.40;98892.00;5054302;28;8846;-71
2021/08/18 03:16:16;;;;;;;;;0.40;0.40;;;;;31.95;51.09;98891.19;5054185;28;9592;-72
2021/08/18 03:18:45;;;;;;;;;0.60;0.60;;;;;31.90;50.41;98880.72;5054241;28;8857;-72
2021/08/18 03:21:13;;;;;;;;;1.00;1.00;;;;;32.07;50.30;98901.59;5054137;28;8838;-72
2021/08/18 03:23:42;;;;;;;;;1.00;1.00;;;;;32.07;51.08;98898.84;5054004;28;8846;-72
2021/08/18 03:26:10;;;;;;;;;0.80;0.80;;;;;32.16;51.28;98898.38;5054029;28;8823;-72
2021/08/18 03:28:39;;;;;;;;;1.00;1.00;;;;;32.14;51.06;98890.59;5053899;28;8866;-72
2021/08/18 03:31:07;;;;;;;;;1.80;1.80;;;;;32.19;49.68;98887.41;5053879;28;8843;-72
2021/08/18 03:33:36;;;;;;;;;1.40;1.40;;;;;32.23;51.39;98890.13;5054052;28;8838;-71
2021/08/18 03:36:05;;;;;;;;;1.00;1.00;;;;;32.23;50.55;98884.66;5053871;28;8846;-72
2021/08/18 03:38:35;;;;;;;;;0.80;0.80;;;;;32.25;51.03;98887.75;5054266;28;8912;-72
2021/08/18 03:41:04;;;;;;;;;1.00;1.00;;;;;32.32;50.69;98887.69;5053795;28;8835;-72
2021/08/18 03:43:33;;;;;;;;;0.20;0.20;;;;;32.37;49.52;98887.22;5053809;28;8881;-72
2021/08/18 03:46:01;;;;;;;;;0.80;0.80;;;;;32.40;49.74;98889.13;5053112;28;8867;-72
2021/08/18 03:48:30;;;;;;;;;0.00;0.00;;;;;32.42;49.21;98884.81;5053749;28;8850;-72
2021/08/18 03:50:59;;;;;;;;;0.00;0.00;;;;;32.46;49.80;98881.25;5054006;28;8854;-72
2021/08/18 03:53:27;;;;;;;;;0.80;0.80;;;;;32.46;49.24;98873.84;5053563;28;8850;-72
2021/08/18 03:55:56;;;;;;;;;0.60;0.60;;;;;32.54;49.20;98875.28;5053522;28;8871;-72
2021/08/18 03:58:24;;;;;;;;;1.00;1.00;;;;;32.59;48.81;98877.53;5053635;28;8842;-72
2021/08/18 04:00:53;;;;;;;;;1.00;1.00;;;;;32.69;49.89;98873.88;5053337;28;8854;-72
2021/08/18 04:03:22;;;;;;;;;0.00;0.00;;;;;32.71;48.87;98859.81;5068534;28;9666;-72
2021/08/18 04:05:51;;;;;;;;;0.00;0.00;;;;;32.77;49.49;98860.94;5053260;28;8826;-72
2021/08/18 04:08:19;;;;;;;;;0.80;0.80;;;;;32.87;49.49;98861.97;5053226;28;8846;-72
2021/08/18 04:10:48;;;;;;;;;1.00;1.00;;;;;32.87;49.19;98861.97;5053232;28;8859;-72
2021/08/18 04:13:16;;;;;;;;;0.00;0.00;;;;;32.93;48.83;98854.84;5053150;28;8866;-72
2021/08/18 04:15:45;;;;;;;;;0.20;0.20;;;;;32.99;49.54;98858.66;5053054;28;8861;-72
2021/08/18 04:18:13;;;;;;;;;0.00;0.00;;;;;32.99;48.78;98845.00;5052978;28;8854;-72
2021/08/18 04:20:42;;;;;;;;;1.00;1.00;;;;;33.08;47.98;98843.28;5051774;28;8835;-72
2021/08/18 04:23:10;;;;;;;;;0.60;0.60;;;;;33.17;49.08;98836.50;5052841;28;8862;-72
2021/08/18 04:25:39;;;;;;;;;0.00;0.00;;;;;33.20;46.90;98835.66;5052886;28;8854;-70
2021/08/18 04:28:08;;;;;;;;;0.00;0.00;;;;;33.29;45.45;98830.47;5052864;28;8927;-72
2021/08/18 04:30:36;;;;;;;;;0.00;0.00;;;;;33.32;48.87;98832.38;5052883;28;8873;-72
2021/08/18 04:33:05;;;;;;;;;0.00;0.00;;;;;33.24;46.81;98809.03;5052801;28;8896;-70
2021/08/18 04:35:33;;;;;;;;;0.00;0.00;;;;;33.39;45.93;98827.56;5052715;28;8831;-72
2021/08/18 04:38:03;;;;;;;;;0.20;0.20;;;;;33.36;46.31;98813.94;5067694;28;9594;-72
2021/08/18 04:40:32;;;;;;;;;0.00;0.00;;;;;33.47;48.88;98813.75;5052571;28;8907;-72
2021/08/18 04:43:00;;;;;;;;;0.80;0.80;;;;;33.53;47.09;98812.84;5052739;28;8850;-72
2021/08/18 04:45:29;;;;;;;;;0.20;0.20;;;;;33.55;46.33;98798.75;5052581;28;8957;-72
2021/08/18 04:47:58;;;;;;;;;0.80;0.80;;;;;33.65;46.56;98793.06;5052506;28;8850;-72
2021/08/18 04:50:26;;;;;;;;;0.40;0.40;;;;;33.71;46.14;98785.94;5052746;28;9630;-72
2021/08/18 04:52:55;;;;;;;;;0.40;0.40;;;;;33.90;46.58;98798.06;5052485;28;8936;-72
2021/08/18 04:55:24;;;;;;;;;0.80;0.80;;;;;34.02;45.90;98786.47;5051975;28;8846;-70
2021/08/18 04:57:52;;;;;;;;;0.80;0.80;;;;;34.08;47.10;98781.25;5067576;28;8843;-72
2021/08/18 05:00:21;;;;;;;;;0.60;0.60;;;;;34.21;47.08;98773.94;5052294;28;8877;-72
2021/08/18 05:02:49;;;;;;;;;2.20;2.20;;;;;34.22;46.40;98767.28;5052183;28;8878;-72
2021/08/18 05:05:19;;;;;;;;;1.80;1.80;;;;;34.34;46.14;98768.59;5052293;28;8846;-72
2021/08/18 05:07:47;;;;;;;;;0.80;0.80;;;;;34.37;46.35;98759.53;5052862;28;8854;-71
2021/08/18 05:10:15;;;;;;;;;0.80;0.80;;;;;34.39;45.22;98751.66;5052134;28;9729;-70
2021/08/18 05:12:44;;;;;;;;;0.60;0.60;;;;;34.43;44.33;98748.84;5052126;28;8834;-70
2021/08/18 05:15:13;;;;;;;;;0.80;0.80;;;;;34.41;45.33;98729.34;5052180;28;8846;-72
2021/08/18 05:17:44;;;;;;;;;1.80;1.80;;;;;34.64;45.47;98749.09;5052323;28;8931;-72
2021/08/18 05:20:14;;;;;;;;;1.20;1.20;;;;;34.73;44.67;98753.22;5052327;28;9005;-70
2021/08/18 05:22:44;;;;;;;;;1.00;1.00;;;;;34.80;43.22;98740.13;5052219;28;8928;-71
2021/08/18 05:25:16;;;;;;;;;0.80;0.80;;;;;34.91;44.39;98734.41;5051931;28;8866;-71
2021/08/18 05:27:45;;;;;;;;;1.00;1.00;;;;;35.03;44.03;98730.19;5051860;28;8843;-72
2021/08/18 05:30:15;;;;;;;;;0.20;0.20;;;;;35.13;43.23;98724.38;5051943;28;8838;-72
2021/08/18 05:32:44;;;;;;;;;1.20;1.20;;;;;35.23;43.59;98731.56;5051874;28;8830;-71
2021/08/18 05:35:16;;;;;;;;;0.80;0.80;;;;;35.32;43.94;98728.22;5051655;28;9007;-71
2021/08/18 05:37:45;;;;;;;;;0.80;0.80;;;;;35.37;44.74;98713.97;5051765;28;8850;-71
2021/08/18 05:40:14;;;;;;;;;1.00;1.00;;;;;35.39;44.39;98705.31;5051706;28;8850;-72
2021/08/18 05:42:43;;;;;;;;;1.80;1.80;;;;;35.50;43.92;98706.56;5050540;28;8843;-72
2021/08/18 05:45:12;;;;;;;;;1.00;1.00;;;;;35.56;43.43;98712.28;5051507;28;8866;-71
2021/08/18 05:47:40;;;;;;;;;0.00;0.00;;;;;35.54;45.02;98684.50;5051613;28;9619;-72
2021/08/18 05:50:09;;;;;;;;;0.00;0.00;;;;;35.58;44.37;98690.66;5051793;28;8847;-72
2021/08/18 05:52:38;;;;;;;;;0.40;0.40;;;;;35.48;43.10;98676.03;5051878;28;8878;-71
2021/08/18 05:55:07;;;;;;;;;1.00;1.00;;;;;35.45;43.87;98667.91;5051620;28;8839;-72
2021/08/18 05:57:36;;;;;;;;;0.80;0.80;;;;;35.59;43.63;98664.75;5051551;28;8907;-72
2021/08/18 06:00:06;;;;;;;;;1.00;1.00;;;;;35.56;43.75;98657.41;5051560;28;8940;-71
2021/08/18 06:02:36;;;;;;;;;1.00;1.00;;;;;35.64;43.30;98653.22;5051548;28;8858;-70
2021/08/18 06:05:05;;;;;;;;;0.40;0.40;;;;;35.71;45.21;98642.03;5051571;28;8919;-71
2021/08/18 06:07:34;;;;;;;;;1.40;1.40;;;;;35.78;43.37;98638.31;5052512;28;8924;-72
2021/08/18 06:10:03;;;;;;;;;0.20;0.20;;;;;35.77;42.47;98625.81;5055506;28;8865;-72
2021/08/18 06:12:32;;;;;;;;;0.20;0.20;;;;;35.82;44.05;98628.78;5056071;28;8943;-72
2021/08/18 06:15:00;;;;;;;;;0.00;0.00;;;;;35.86;43.32;98621.22;5055574;28;8931;-72
2021/08/18 06:17:28;;;;;;;;;0.80;0.80;;;;;35.86;42.76;98604.75;5055391;28;8850;-73
2021/08/18 06:19:57;;;;;;;;;0.80;0.80;;;;;36.07;44.03;98608.03;5054501;28;9623;-73
2021/08/18 06:22:26;;;;;;;;;1.00;1.00;;;;;36.13;43.60;98598.78;5054026;28;8854;-73
2021/08/18 06:24:56;;;;;;;;;1.60;1.60;;;;;36.29;42.72;98600.66;5054820;28;8866;-71
2021/08/18 06:27:25;;;;;;;;;0.60;0.60;;;;;36.43;42.70;98585.63;5053889;28;8854;-69
2021/08/18 06:29:54;;;;;;;;;0.40;0.40;;;;;36.55;42.12;98585.59;5054752;28;8869;-68
2021/08/18 06:32:22;;;;;;;;;0.60;0.60;;;;;36.58;42.55;98565.47;5054932;28;8842;-68
2021/08/18 06:34:53;;;;;;;;;1.00;1.00;;;;;36.76;43.65;98575.09;5054876;28;8938;-69
2021/08/18 06:37:36;;;;;;;;;1.00;0.80;;;;;36.84;42.89;98574.41;5054341;28;8862;-70
2021/08/18 06:40:07;;;;;;;;;1.00;1.00;;;;;36.86;41.28;98560.19;5053652;28;9592;-69
2021/08/18 06:42:40;;;;;;;;;1.00;1.00;;;;;36.96;40.94;98552.78;5054682;28;8982;-69
2021/08/18 06:45:11;;;;;;;;;1.00;1.00;;;;;37.04;41.36;98549.31;5054480;28;8937;-70
2021/08/18 06:47:40;;;;;;;;;1.20;1.20;;;;;37.10;41.56;98536.50;5054235;28;8927;-70
2021/08/18 06:50:09;;;;;;;;;1.00;1.00;;;;;37.16;39.34;98523.72;5053863;28;8870;-70
2021/08/18 06:52:38;;;;;;;;;0.60;0.60;;;;;37.29;40.15;98529.16;5054183;28;8834;-69
2021/08/18 06:55:08;;;;;;;;;1.00;1.00;;;;;37.32;40.93;98511.72;5054322;28;8851;-70
2021/08/18 06:57:36;;;;;;;;;2.00;2.00;;;;;37.49;40.40;98524.03;5054592;28;8943;-71
2021/08/18 07:00:06;;;;;;;;;0.80;0.80;;;;;37.56;40.29;98514.72;5053537;28;8928;-71
2021/08/18 07:02:42;;;;;;;;;1.00;1.00;;;;;37.58;39.97;98509.53;5054324;28;8843;-71
2021/08/18 07:05:11;;;;;;;;;1.20;1.20;;;;;37.61;39.50;98508.63;5053748;28;8931;-70
2021/08/18 07:07:40;;;;;;;;;0.40;0.40;;;;;37.65;39.58;98500.22;5054119;28;8858;-70
2021/08/18 07:10:10;;;;;;;;;0.60;0.60;;;;;37.66;39.88;98497.00;5053553;28;8893;-71
2021/08/18 07:12:39;;;;;;;;;0.20;0.20;;;;;37.67;41.10;98501.28;5053912;28;8936;-70
2021/08/18 07:15:07;;;;;;;;;1.60;1.60;;;;;37.61;39.96;98478.34;5053823;28;8846;-68
2021/08/18 07:17:36;;;;;;;;;0.60;0.60;;;;;37.62;40.67;98473.59;5053965;28;8971;-69
2021/08/18 07:20:05;;;;;;;;;0.60;0.60;;;;;37.69;40.92;98482.38;5053291;28;8916;-69
2021/08/18 07:22:34;;;;;;;;;0.60;0.60;;;;;37.72;40.62;98469.66;5053457;28;8850;-69
2021/08/18 07:25:03;;;;;;;;;0.40;0.40;;;;;37.84;39.83;98482.50;5053846;28;8976;-69
2021/08/18 07:27:32;;;;;;;;;0.60;0.60;;;;;37.92;40.63;98474.72;5053567;28;8936;-69
2021/08/18 07:30:00;;;;;;;;;1.60;1.60;;;;;37.97;36.98;98471.38;5052371;28;8846;-69
2021/08/18 07:32:29;;;;;;;;;0.60;0.60;;;;;37.91;40.70;98456.66;5052845;28;8992;-69
2021/08/18 07:34:57;;;;;;;;;0.60;0.60;;;;;37.87;39.66;98451.31;5053652;28;8916;-70
2021/08/18 07:37:27;;;;;;;;;0.20;0.20;;;;;37.97;39.49;98454.84;5053470;28;8834;-69
2021/08/18 07:39:55;;;;;;;;;0.60;0.60;;;;;37.85;39.77;98432.50;5053492;28;8846;-69
2021/08/18 07:42:24;;;;;;;;;0.60;0.60;;;;;37.99;38.88;98442.13;5052603;28;8977;-69
2021/08/18 07:44:52;;;;;;;;;1.60;0.20;;;;;38.11;43.70;98452.25;5053493;28;8854;-69
2021/08/18 07:47:21;;;;;;;;;0.80;0.80;;;;;38.03;43.58;98450.25;5053308;28;9608;-70
2021/08/18 07:49:50;;;;;;;;;0.60;0.60;;;;;37.80;41.06;98446.09;5053650;28;8943;-69
2021/08/18 07:52:19;;;;;;;;;1.20;1.20;;;;;37.64;39.39;98443.63;5053013;28;9608;-69
2021/08/18 07:54:48;;;;;;;;;1.20;1.20;;;;;37.54;41.22;98440.88;5052761;28;8847;-69
2021/08/18 07:57:16;;;;;;;;;1.00;1.00;;;;;37.60;40.65;98443.03;5053350;28;8854;-69
2021/08/18 07:59:45;;;;;;;;;1.20;1.20;;;;;37.59;42.81;98417.50;5068494;28;8854;-69
2021/08/18 08:02:19;;;;;;;;;0.60;0.60;;;;;37.74;41.69;98421.16;5052828;28;8869;-69
2021/08/18 08:04:48;;;;;;;;;1.60;1.60;;;;;37.83;40.71;98417.66;5052287;28;9754;-69
2021/08/18 08:07:16;;;;;;;;;1.80;1.80;;;;;37.94;41.01;98415.22;5052898;28;8843;-69
2021/08/18 08:09:45;;;;;;;;;0.80;0.80;;;;;37.99;39.34;98405.56;5052857;28;8859;-70
2021/08/18 08:12:13;;;;;;;;;1.20;1.20;;;;;38.08;41.60;98409.09;5052992;28;8851;-69
2021/08/18 08:14:42;;;;;;;;;0.00;0.00;;;;;38.10;37.42;98414.91;5052173;28;8854;-69
2021/08/18 08:17:10;;;;;;;;;0.40;0.40;;;;;38.05;40.97;98406.50;5052734;28;8850;-69
2021/08/18 08:19:39;;;;;;;;;0.80;0.80;;;;;37.93;39.35;98388.13;5052757;28;9220;-71
2021/08/18 08:22:07;;;;;;;;;0.80;0.80;;;;;38.05;40.06;98398.22;5052670;28;8846;-69
2021/08/18 08:24:36;;;;;;;;;1.00;1.00;;;;;38.09;40.22;98401.59;5052442;28;8924;-71
2021/08/18 08:27:05;;;;;;;;;0.80;0.80;;;;;38.13;40.60;98391.19;5052517;28;8842;-71
2021/08/18 08:29:33;;;;;;;;;2.00;2.00;;;;;38.13;39.31;98397.47;5050908;28;8847;-70
2021/08/18 08:32:02;;;;;;;;;1.00;1.00;;;;;38.12;38.17;98384.91;5051929;28;8919;-70
2021/08/18 08:34:31;;;;;;;;;2.00;2.00;;;;;37.87;41.22;98354.94;5052210;28;8866;-72
2021/08/18 08:36:59;;;;;;;;;0.60;0.60;;;;;38.01;40.99;98373.59;5051551;28;8885;-68
2021/08/18 08:39:28;;;;;;;;;0.80;0.80;;;;;37.92;39.01;98372.84;5052129;28;9606;-69
2021/08/18 08:41:57;;;;;;;;;1.80;1.80;;;;;37.94;39.25;98370.38;5052122;28;8850;-69
2021/08/18 08:44:25;;;;;;;;;0.00;0.00;;;;;37.99;42.83;98369.78;5052252;28;8964;-69
2021/08/18 08:46:54;;;;;;;;;0.60;0.60;;;;;37.86;38.62;98356.16;5051754;28;8843;-69
2021/08/18 08:49:23;;;;;;;;;0.20;0.20;;;;;37.89;39.77;98352.50;5052189;28;8869;-70
2021/08/18 08:51:53;;;;;;;;;0.00;0.00;;;;;37.97;39.89;98350.19;5052152;28;8928;-69
2021/08/18 08:54:22;;;;;;;;;0.80;0.80;;;;;38.08;39.74;98354.00;5052271;28;8970;-68
2021/08/18 08:56:50;;;;;;;;;0.60;0.60;;;;;38.21;40.03;98353.84;5051535;28;8850;-68
2021/08/18 08:59:19;;;;;;;;;1.00;1.00;;;;;38.16;40.43;98340.72;5051680;28;9588;-68
2021/08/18 09:02:04;;;;;;;;;0.80;0.80;;;;;38.13;40.16;98341.59;5052141;28;8846;-68
2021/08/18 09:04:37;;;;;;;;;0.40;0.40;;;;;38.12;41.04;98340.84;5052124;28;8877;-68
2021/08/18 09:07:16;;;;;;;;;0.60;0.60;;;;;38.18;38.29;98343.75;5051087;28;8842;-68
2021/08/18 09:09:52;;;;;;;;;0.60;0.60;;;;;38.27;41.63;98348.47;5052184;28;9599;-68
2021/08/18 09:12:28;;;;;;;;;0.60;0.60;;;;;38.29;41.01;98352.31;5052202;28;8859;-68
2021/08/18 09:14:57;;;;;;;;;0.40;0.40;;;;;38.17;38.19;98337.50;5052228;28;8915;-68
2021/08/18 09:17:39;;;;;;;;;0.60;0.60;;;;;38.09;39.19;98316.97;5052101;28;9560;-68
2021/08/18 09:20:20;;;;;;;;;0.40;0.40;;;;;38.17;39.51;98318.22;5052068;28;8842;-68
2021/08/18 09:22:52;;;;;;;;;0.80;0.80;;;;;38.30;39.53;98331.03;5052008;28;8830;-68
2021/08/18 09:25:30;;;;;;;;;1.80;1.80;;;;;38.37;39.18;98325.94;5051972;28;8846;-68
2021/08/18 09:28:18;;;;;;;;;0.40;0.40;;;;;38.39;39.67;98312.47;5051945;28;8859;-68
2021/08/18 09:30:56;;;;;;;;;1.80;1.80;;;;;38.41;39.31;98323.03;5051869;28;8912;-68
2021/08/18 09:33:33;;;;;;;;;0.60;0.60;;;;;38.41;38.17;98312.78;5051889;28;8920;-68
2021/08/18 09:36:02;;;;;;;;;1.00;1.00;;;;;38.44;38.09;98311.06;5051867;28;8835;-68
2021/08/18 09:38:31;;;;;;;;;2.00;2.00;;;;;38.50;38.21;98303.72;5051695;28;8847;-68
2021/08/18 09:41:00;;;;;;;;;0.80;0.80;;;;;38.57;38.76;98314.41;5053217;28;8867;-68
2021/08/18 09:43:30;;;;;;;;;0.00;0.00;;;;;38.64;38.00;98305.81;5057721;28;9681;-68
2021/08/18 09:46:01;;;;;;;;;0.00;0.00;;;;;38.68;37.95;98303.66;5056253;28;8854;-68
2021/08/18 09:48:32;;;;;;;;;0.00;0.00;;;;;38.66;37.84;98292.34;5056023;28;8863;-68
2021/08/18 09:51:03;;;;;;;;;0.80;0.80;;;;;38.67;38.40;98295.84;5056159;28;8944;-68
2021/08/18 09:53:35;;;;;;;;;0.80;0.80;;;;;38.60;38.28;98290.69;5055751;28;8940;-68
2021/08/18 09:56:11;;;;;;;;;1.00;1.00;;;;;38.60;38.07;98294.19;5055851;28;8830;-68
2021/08/18 09:58:49;;;;;;;;;1.00;1.00;;;;;38.53;39.63;98297.25;5055838;28;8865;-68
2021/08/18 10:01:20;;;;;;;;;1.00;1.00;;;;;38.54;40.24;98300.78;5055669;28;8861;-68
2021/08/18 10:03:52;;;;;;;;;0.60;0.60;;;;;38.45;36.21;98299.59;5055569;28;8845;-68
2021/08/18 10:06:21;;;;;;;;;1.20;1.20;;;;;38.32;37.33;98292.75;5055615;28;8850;-68
2021/08/18 10:08:53;;;;;;;;;0.80;0.80;;;;;38.23;38.30;98296.31;5055491;28;8870;-68
2021/08/18 10:11:23;;;;;;;;;1.00;1.00;;;;;38.11;37.69;98286.97;5055475;28;8850;-68
2021/08/18 10:13:53;;;;;;;;;0.00;0.00;;;;;38.05;40.18;98291.59;5055385;28;8859;-68
2021/08/18 10:16:22;;;;;;;;;1.00;1.00;;;;;37.97;40.51;98301.38;5055473;28;8866;-68
2021/08/18 10:18:55;;;;;;;;;1.00;1.00;;;;;37.87;37.99;98302.63;5055222;28;8830;-68
2021/08/18 10:21:27;;;;;;;;;0.60;0.60;;;;;37.74;38.74;98305.56;5055331;28;8900;-68
2021/08/18 10:24:03;;;;;;;;;0.20;0.20;;;;;37.67;38.61;98308.63;5054019;28;8842;-68
2021/08/18 10:26:50;;;;;;;;;1.00;1.00;;;;;37.65;37.53;98310.31;5055203;28;8869;-68
2021/08/18 10:29:32;;;;;;;;;1.00;1.00;;;;;37.61;37.28;98309.69;5055149;28;8920;-68
2021/08/18 10:32:10;;;;;;;;;0.40;0.40;;;;;37.54;39.32;98311.53;5055140;28;8861;-68
2021/08/18 10:34:41;;;;;;;;;0.80;0.80;;;;;37.44;39.00;98298.22;5055085;28;8839;-68
2021/08/18 10:37:23;;;;;;;;;0.40;0.40;;;;;37.36;36.96;98294.25;5054968;28;8889;-68
2021/08/18 10:39:54;;;;;;;;;1.00;1.00;;;;;37.30;39.19;98301.59;5054727;28;8897;-68
2021/08/18 10:42:37;;;;;;;;;1.00;1.00;;;;;37.31;38.21;98305.88;5055009;28;8878;-68
2021/08/18 10:45:18;;;;;;;;;0.00;0.00;;;;;37.30;40.22;98307.84;5054706;28;8834;-68
2021/08/18 10:47:49;;;;;;;;;1.00;1.00;;;;;37.22;39.40;98301.88;5055059;28;8900;-68
2021/08/18 10:50:24;;;;;;;;;0.20;0.20;;;;;37.23;38.00;98314.41;5055127;28;8873;-68
2021/08/18 10:52:59;;;;;;;;;0.60;0.60;;;;;36.97;38.76;98287.59;5054513;28;8943;-68
2021/08/18 10:55:31;;;;;;;;;1.40;1.40;;;;;37.06;37.65;98302.13;5054944;28;8853;-68
2021/08/18 10:58:05;;;;;;;;;0.40;0.40;;;;;37.08;38.41;98307.94;5054373;28;8898;-68
2021/08/18 11:00:44;;;;;;;;;1.00;1.00;;;;;37.04;39.32;98306.56;5053257;28;8931;-68
2021/08/18 11:03:13;;;;;;;;;0.40;0.40;;;;;37.02;39.15;98311.75;5054503;28;8857;-68
2021/08/18 11:05:58;;;;;;;;;0.00;0.00;;;;;37.02;37.97;98314.50;5054411;28;8846;-68
2021/08/18 11:08:28;;;;;;;;;1.00;1.00;;;;;37.03;38.99;98314.03;5054500;28;8861;-68
2021/08/18 11:10:58;;;;;;;;;0.00;0.00;;;;;37.03;39.03;98322.28;5054362;28;8862;-68
2021/08/18 11:13:50;;;;;;;;;0.60;0.60;;;;;37.05;39.12;98327.34;5054356;28;9642;-68
2021/08/18 11:16:30;;;;;;;;;1.00;1.00;;;;;37.04;39.29;98325.81;5054292;28;8842;-68
2021/08/18 11:19:03;;;;;;;;;1.00;1.00;;;;;37.07;38.16;98325.66;5054416;28;8890;-68
2021/08/18 11:21:34;;;;;;;;;1.00;1.00;;;;;37.05;40.13;98332.84;5054511;28;8904;-68
2021/08/18 11:24:08;;;;;;;;;0.00;0.00;;;;;36.95;41.26;98323.81;5054178;28;8850;-68
2021/08/18 11:26:39;;;;;;;;;1.20;1.20;;;;;36.82;41.16;98332.16;5055159;28;8866;-68
2021/08/18 11:29:12;;;;;;;;;1.20;1.20;;;;;36.69;41.40;98347.22;5054742;28;8897;-68
2021/08/18 11:31:53;;;;;;;;;0.80;0.80;;;;;36.53;41.80;98345.47;5069162;28;8905;-68
2021/08/18 11:34:26;;;;;;;;;4.00;3.00;;;;;36.37;41.17;98346.47;5053915;28;8873;-68
2021/08/18 11:37:13;;;;;;;;;1.60;1.60;;;;;36.22;41.77;98346.22;5054194;28;8842;-68
2021/08/18 11:39:46;;;;;;;;;1.80;1.80;;;;;36.07;41.84;98342.47;5053661;28;8854;-68
2021/08/18 11:42:17;;;;;;;;;2.40;2.40;;;;;35.96;42.35;98347.56;5053778;28;8858;-68
2021/08/18 11:44:58;;;;;;;;;2.20;2.20;;;;;35.85;42.32;98355.41;5053669;28;8877;-68
2021/08/18 11:47:34;;;;;;;;;2.00;2.00;;;;;35.73;43.05;98365.19;5053703;28;8880;-68
2021/08/18 11:50:03;;;;;;;;;2.20;2.20;;;;;35.48;43.06;98333.13;5053632;28;8843;-68
2021/08/18 11:52:31;;;;;;;;;4.00;4.00;;;;;35.57;43.30;98363.38;5053907;28;8904;-68
2021/08/18 11:55:02;;;;;;;;;4.60;4.60;;;;;35.51;43.85;98358.91;5053752;28;8873;-68
2021/08/18 11:57:32;;;;;;;;;3.20;3.20;;;;;35.42;43.69;98361.56;5053541;28;8846;-68